createdAt,value
2022-10-17T00:00:34.893Z,79.35
2022-10-17T00:03:01.622Z,79.61
2022-10-17T00:05:27.996Z,79.49
2022-10-17T00:07:55.094Z,79.45
2022-10-17T00:10:21.813Z,79.74
2022-10-17T00:12:48.406Z,79.91
2022-10-17T00:15:17.588Z,80.21
2022-10-17T00:17:44.154Z,80.71
2022-10-17T00:20:11.217Z,80.76
2022-10-17T00:22:37.684Z,81.02
2022-10-17T00:25:04.399Z,81.04
2022-10-17T00:27:31.009Z,81.55
2022-10-17T00:29:57.445Z,81.74
2022-10-17T00:32:24.112Z,81.91
2022-10-17T00:34:50.490Z,82.22
2022-10-17T00:37:17.924Z,82.32
2022-10-17T00:39:44.331Z,82.19
2022-10-17T00:42:13.092Z,82.62
2022-10-17T00:44:39.462Z,82.94
2022-10-17T00:47:11.021Z,83.13
2022-10-17T00:49:38.677Z,83.27
2022-10-17T00:52:15.538Z,83.56
2022-10-17T00:54:48.245Z,83.39
2022-10-17T00:57:16.590Z,83.36
2022-10-17T00:59:49.028Z,83.50
2022-10-17T01:02:18.550Z,84.27
2022-10-17T01:04:47.971Z,83.94
2022-10-17T01:07:14.568Z,84.28
2022-10-17T01:09:42.780Z,84.29
2022-10-17T01:12:21.152Z,83.80
2022-10-17T01:15:02.745Z,84.00
2022-10-17T01:17:45.642Z,84.04
2022-10-17T01:20:36.573Z,83.62
2022-10-17T01:23:24.828Z,83.82
2022-10-17T01:26:13.940Z,84.03
2022-10-17T01:28:55.594Z,84.28
2022-10-17T01:31:25.741Z,84.60
2022-10-17T01:34:04.521Z,84.69
2022-10-17T01:36:48.595Z,84.84
2022-10-17T01:39:29.984Z,84.68
2022-10-17T01:42:00.673Z,84.83
2022-10-17T01:44:35.420Z,85.31
2022-10-17T01:47:10.698Z,84.90
2022-10-17T01:49:40.768Z,84.85
2022-10-17T01:52:14.885Z,85.24
2022-10-17T01:54:53.436Z,85.11
2022-10-17T01:57:29.478Z,84.65
2022-10-17T01:59:57.229Z,84.57
2022-10-17T02:02:25.770Z,84.07
2022-10-17T02:04:52.770Z,84.15
2022-10-17T02:07:19.808Z,83.65
2022-10-17T02:09:46.953Z,83.62
2022-10-17T02:12:40.156Z,83.00
2022-10-17T02:15:28.541Z,83.21
2022-10-17T02:18:15.796Z,83.44
2022-10-17T02:20:52.997Z,83.79
2022-10-17T02:23:22.359Z,83.98
2022-10-17T02:26:02.551Z,83.96
2022-10-17T02:28:52.437Z,83.48
2022-10-17T02:31:26.814Z,83.32
2022-10-17T02:34:02.751Z,84.08
2022-10-17T02:36:35.851Z,84.07
2022-10-17T02:39:04.148Z,83.90
2022-10-17T02:41:31.850Z,84.76
2022-10-17T02:44:01.642Z,84.68
2022-10-17T02:46:30.512Z,85.18
2022-10-17T02:49:03.255Z,85.68
2022-10-17T02:51:42.160Z,85.44
2022-10-17T02:54:18.923Z,85.81
2022-10-17T02:56:57.867Z,86.16
2022-10-17T02:59:26.068Z,86.39
2022-10-17T03:01:52.901Z,86.35
2022-10-17T03:04:19.754Z,86.77
2022-10-17T03:06:48.849Z,87.02
2022-10-17T03:09:15.626Z,87.71
2022-10-17T03:11:42.139Z,87.44
2022-10-17T03:14:08.985Z,87.51
2022-10-17T03:16:36.487Z,87.58
2022-10-17T03:19:04.305Z,87.49
2022-10-17T03:21:31.962Z,87.43
2022-10-17T03:23:58.379Z,88.24
2022-10-17T03:26:24.858Z,88.09
2022-10-17T03:28:53.685Z,88.32
2022-10-17T03:31:22.433Z,87.99
2022-10-17T03:33:49.767Z,88.60
2022-10-17T03:36:18.467Z,89.24
2022-10-17T03:38:46.990Z,89.10
2022-10-17T03:41:14.141Z,88.93
2022-10-17T03:43:40.813Z,89.04
2022-10-17T03:46:08.217Z,88.81
2022-10-17T03:48:35.747Z,88.19
2022-10-17T03:51:06.691Z,87.91
2022-10-17T03:53:37.398Z,87.94
2022-10-17T03:56:17.027Z,87.62
2022-10-17T03:58:45.545Z,87.94
2022-10-17T04:01:15.785Z,87.62
2022-10-17T04:03:44.014Z,88.43
2022-10-17T04:06:12.468Z,88.18
2022-10-17T04:08:42.787Z,88.22
2022-10-17T04:11:19.649Z,87.77
2022-10-17T04:13:51.980Z,87.85
2022-10-17T04:16:18.416Z,87.31
2022-10-17T04:18:55.453Z,86.69
2022-10-17T04:21:28.154Z,86.44
2022-10-17T04:23:56.552Z,86.42
2022-10-17T04:26:42.501Z,86.37
2022-10-17T04:29:09.181Z,86.25
2022-10-17T04:31:35.830Z,87.63
2022-10-17T04:34:14.457Z,88.03
2022-10-17T04:36:41.083Z,87.84
2022-10-17T04:39:08.492Z,88.35
2022-10-17T04:41:35.940Z,88.43
2022-10-17T04:44:02.654Z,88.09
2022-10-17T04:46:35.010Z,87.97
2022-10-17T04:49:01.648Z,88.82
2022-10-17T04:51:28.907Z,88.53
2022-10-17T04:54:10.093Z,88.12
2022-10-17T04:56:39.363Z,88.73
2022-10-17T04:59:05.821Z,89.13
2022-10-17T05:01:33.011Z,89.35
2022-10-17T05:03:59.849Z,89.01
2022-10-17T05:06:31.459Z,89.11
2022-10-17T05:09:27.952Z,89.46
2022-10-17T05:11:54.510Z,89.39
2022-10-17T05:14:21.433Z,89.06
2022-10-17T05:16:48.105Z,88.82
2022-10-17T05:19:14.726Z,89.26
2022-10-17T05:21:45.659Z,88.91
2022-10-17T05:24:14.676Z,88.52
2022-10-17T05:26:41.092Z,87.95
2022-10-17T05:29:07.605Z,87.21
2022-10-17T05:31:38.051Z,86.29
2022-10-17T05:34:08.036Z,86.52
2022-10-17T05:36:37.721Z,85.50
2022-10-17T05:39:05.028Z,85.75
2022-10-17T05:41:33.541Z,85.58
2022-10-17T05:44:03.100Z,85.48
2022-10-17T05:46:41.154Z,86.05
2022-10-17T05:49:15.079Z,86.40
2022-10-17T05:51:52.050Z,86.31
2022-10-17T05:54:18.549Z,86.26
2022-10-17T05:56:45.400Z,85.94
2022-10-17T05:59:12.089Z,86.65
2022-10-17T06:02:01.102Z,86.79
2022-10-17T06:04:27.810Z,87.19
2022-10-17T06:06:56.136Z,87.43
2022-10-17T06:09:23.659Z,86.88
2022-10-17T06:11:52.769Z,86.62
2022-10-17T06:14:19.857Z,86.66
2022-10-17T06:16:48.210Z,86.66
2022-10-17T06:19:15.684Z,86.57
2022-10-17T06:21:42.160Z,86.25
2022-10-17T06:24:12.556Z,86.57
2022-10-17T06:26:41.240Z,87.10
2022-10-17T06:29:09.220Z,87.21
2022-10-17T06:31:41.810Z,87.09
2022-10-17T06:34:08.340Z,87.78
2022-10-17T06:36:34.862Z,87.88
2022-10-17T06:39:01.417Z,87.71
2022-10-17T06:41:33.872Z,88.07
2022-10-17T06:44:10.797Z,88.25
2022-10-17T06:47:00.063Z,88.70
2022-10-17T06:49:27.729Z,88.48
2022-10-17T06:52:03.473Z,88.08
2022-10-17T06:54:39.536Z,88.32
2022-10-17T06:57:30.325Z,88.49
2022-10-17T07:00:20.177Z,89.00
2022-10-17T07:02:50.941Z,89.58
2022-10-17T07:05:19.345Z,89.59
2022-10-17T07:07:47.476Z,89.36
2022-10-17T07:10:16.159Z,89.64
2022-10-17T07:12:45.684Z,89.25
2022-10-17T07:15:12.448Z,89.12
2022-10-17T07:17:38.859Z,89.26
2022-10-17T07:20:06.430Z,89.49
2022-10-17T07:22:35.098Z,89.57
2022-10-17T07:25:01.812Z,89.90
2022-10-17T07:27:36.884Z,89.68
2022-10-17T07:30:04.460Z,89.64
2022-10-17T07:32:39.273Z,89.49
2022-10-17T07:35:09.142Z,89.34
2022-10-17T07:37:35.888Z,89.06
2022-10-17T07:40:02.857Z,88.80
2022-10-17T07:42:29.371Z,88.67
2022-10-17T07:44:55.799Z,88.24
2022-10-17T07:47:23.230Z,87.63
2022-10-17T07:49:50.195Z,87.49
2022-10-17T07:52:17.486Z,87.19
2022-10-17T07:54:44.343Z,86.69
2022-10-17T07:57:10.872Z,86.39
2022-10-17T07:59:38.234Z,86.32
2022-10-17T08:02:04.769Z,85.92
2022-10-17T08:04:31.331Z,85.50
2022-10-17T08:07:11.336Z,85.18
2022-10-17T08:09:44.295Z,84.77
2022-10-17T08:12:10.925Z,83.80
2022-10-17T08:14:39.129Z,83.53
2022-10-17T08:17:05.505Z,83.15
2022-10-17T08:19:32.126Z,82.93
2022-10-17T08:21:59.149Z,82.46
2022-10-17T08:24:25.694Z,81.87
2022-10-17T08:26:53.305Z,81.41
2022-10-17T08:29:19.858Z,81.15
2022-10-17T08:31:47.888Z,81.01
2022-10-17T08:34:15.882Z,80.43
2022-10-17T08:36:42.288Z,79.92
2022-10-17T08:39:08.692Z,79.61
2022-10-17T08:41:51.229Z,78.99
2022-10-17T08:44:36.150Z,78.74
2022-10-17T08:47:09.105Z,78.27
2022-10-17T08:49:55.750Z,78.29
2022-10-17T08:52:47.217Z,78.08
2022-10-17T08:57:44.448Z,77.79
2022-10-17T09:00:18.016Z,77.29
2022-10-17T09:03:21.167Z,77.43
2022-10-17T09:05:54.529Z,77.51
2022-10-17T09:08:35.634Z,77.06
2022-10-17T09:11:26.604Z,77.00
2022-10-17T09:14:00.945Z,76.68
2022-10-17T09:16:47.971Z,76.58
2022-10-17T09:19:24.274Z,76.90
2022-10-17T09:22:04.264Z,76.95
2022-10-17T09:24:51.008Z,76.98
2022-10-17T09:27:24.906Z,76.97
2022-10-17T09:29:58.615Z,77.30
2022-10-17T09:32:25.613Z,77.57
2022-10-17T09:34:53.813Z,77.78
2022-10-17T09:37:24.760Z,78.14
2022-10-17T09:39:51.303Z,77.95
2022-10-17T09:42:21.647Z,77.64
2022-10-17T09:45:16.708Z,77.26
2022-10-17T09:48:11.163Z,77.35
2022-10-17T09:50:37.717Z,75.95
2022-10-17T09:53:21.335Z,75.19
2022-10-17T09:55:51.547Z,74.37
2022-10-17T09:58:20.398Z,73.19
2022-10-17T10:00:48.866Z,72.95
2022-10-17T10:03:21.359Z,72.29
2022-10-17T10:06:06.966Z,72.19
2022-10-17T10:08:53.686Z,72.27
2022-10-17T10:11:25.673Z,71.59
2022-10-17T10:13:52.671Z,71.31
2022-10-17T10:16:19.062Z,70.93
2022-10-17T10:18:48.710Z,70.57
2022-10-17T10:21:22.950Z,69.79
2022-10-17T10:24:12.576Z,69.52
2022-10-17T10:26:49.780Z,68.77
2022-10-17T10:29:32.598Z,68.37
2022-10-17T10:32:08.069Z,66.07
2022-10-17T10:34:36.085Z,64.65
2022-10-17T10:37:04.165Z,64.80
2022-10-17T10:39:53.051Z,65.67
2022-10-17T10:42:24.924Z,66.51
2022-10-17T10:44:53.886Z,66.47
2022-10-17T10:47:25.001Z,65.38
2022-10-17T10:50:07.637Z,65.61
2022-10-17T10:52:43.619Z,65.95
2022-10-17T10:55:23.867Z,66.14
2022-10-17T10:57:55.585Z,64.96
2022-10-17T11:00:26.025Z,64.18
2022-10-17T11:03:02.325Z,63.67
2022-10-17T11:05:38.020Z,65.24
2022-10-17T11:08:33.973Z,65.71
2022-10-17T11:11:18.201Z,65.77
2022-10-17T11:14:31.193Z,65.59
2022-10-17T11:17:28.831Z,65.01
2022-10-17T11:20:22.958Z,64.75
2022-10-17T11:22:57.473Z,64.34
2022-10-17T11:25:36.831Z,63.35
2022-10-17T11:28:11.604Z,63.63
2022-10-17T11:30:52.322Z,62.94
2022-10-17T11:33:27.142Z,61.66
2022-10-17T11:35:58.863Z,60.46
2022-10-17T11:38:32.330Z,58.77
2022-10-17T11:41:00.075Z,58.01
2022-10-17T11:43:35.533Z,57.29
2022-10-17T11:46:10.504Z,56.86
2022-10-17T11:48:48.504Z,56.66
2022-10-17T11:54:13.222Z,54.91
2022-10-17T11:57:18.364Z,54.48
2022-10-17T12:00:12.829Z,55.27
2022-10-17T12:02:57.736Z,55.07
2022-10-17T12:05:42.901Z,54.45
2022-10-17T12:08:17.722Z,54.84
2022-10-17T12:11:05.878Z,54.73
2022-10-17T12:13:32.450Z,54.81
2022-10-17T12:16:19.094Z,54.39
2022-10-17T12:19:00.783Z,54.58
2022-10-17T12:21:31.294Z,55.10
2022-10-17T12:23:58.658Z,55.00
2022-10-17T12:26:27.721Z,55.16
2022-10-17T12:28:54.781Z,55.24
2022-10-17T12:31:32.468Z,55.33
2022-10-17T12:34:04.756Z,55.03
2022-10-17T12:36:31.102Z,55.61
2022-10-17T12:39:03.657Z,54.85
2022-10-17T12:41:38.934Z,53.80
2022-10-17T12:44:14.594Z,53.42
2022-10-17T12:46:41.236Z,53.12
2022-10-17T12:49:38.501Z,52.07
2022-10-17T12:52:32.211Z,52.18
2022-10-17T12:55:13.990Z,51.38
2022-10-17T12:57:47.272Z,50.70
2022-10-17T13:00:34.464Z,50.10
2022-10-17T13:03:15.263Z,49.04
2022-10-17T13:05:43.660Z,49.72
2022-10-17T13:08:17.724Z,49.65
2022-10-17T13:10:49.104Z,50.55
2022-10-17T13:13:23.968Z,51.08
2022-10-17T13:15:52.729Z,50.30
2022-10-17T13:18:29.698Z,48.82
2022-10-17T13:21:06.560Z,49.09
2022-10-17T13:23:36.012Z,49.07
2022-10-17T13:26:12.662Z,48.58
2022-10-17T13:28:45.913Z,46.29
2022-10-17T13:31:33.432Z,42.93
2022-10-17T13:34:03.251Z,40.78
2022-10-17T13:36:32.573Z,38.56
2022-10-17T13:39:04.838Z,38.47
2022-10-17T13:41:36.543Z,38.03
2022-10-17T13:44:12.542Z,38.81
2022-10-17T13:46:39.984Z,39.13
2022-10-17T13:49:39.257Z,39.05
2022-10-17T13:52:14.087Z,39.46
2022-10-17T13:54:42.936Z,39.57
2022-10-17T13:57:26.148Z,39.97
2022-10-17T13:59:59.418Z,40.90
2022-10-17T14:02:28.827Z,40.92
2022-10-17T14:05:18.103Z,40.66
2022-10-17T14:08:13.754Z,40.56
2022-10-17T14:10:43.729Z,40.79
2022-10-17T14:13:34.113Z,40.45
2022-10-17T14:16:03.441Z,41.16
2022-10-17T14:18:36.711Z,40.43
2022-10-17T14:21:40.520Z,39.52
2022-10-17T14:23:52.870Z,40.00
2022-10-17T14:26:22.374Z,40.01
2022-10-17T14:29:05.469Z,39.19
2022-10-17T14:31:36.924Z,39.86
2022-10-17T14:34:04.508Z,40.22
2022-10-17T14:36:44.329Z,38.98
2022-10-17T14:39:20.360Z,38.38
2022-10-17T14:41:47.905Z,38.42
2022-10-17T14:44:22.837Z,38.42
2022-10-17T14:46:54.683Z,38.72
2022-10-17T14:49:27.352Z,38.26
2022-10-17T14:52:23.479Z,37.41
2022-10-17T14:54:50.293Z,37.50
2022-10-17T14:57:28.661Z,37.64
2022-10-17T14:59:57.039Z,36.80
2022-10-17T15:02:25.767Z,35.51
2022-10-17T15:04:52.818Z,33.72
2022-10-17T15:07:21.111Z,31.88
2022-10-17T15:09:51.425Z,30.15
2022-10-17T15:12:23.370Z,28.90
2022-10-17T15:14:50.599Z,28.77
2022-10-17T15:17:23.739Z,28.41
2022-10-17T15:19:50.759Z,27.48
2022-10-17T15:22:18.124Z,28.74
2022-10-17T15:24:47.909Z,30.77
2022-10-17T15:27:22.702Z,32.16
2022-10-17T15:29:50.368Z,31.20
2022-10-17T15:32:17.167Z,29.96
2022-10-17T15:34:43.672Z,29.88
2022-10-17T15:37:25.196Z,29.57
2022-10-17T15:39:54.961Z,30.33
2022-10-17T15:42:31.040Z,30.92
2022-10-17T15:44:58.389Z,31.17
2022-10-17T15:47:31.466Z,30.22
2022-10-17T15:49:58.841Z,30.52
2022-10-17T15:52:25.366Z,30.36
2022-10-17T15:54:52.610Z,29.84
2022-10-17T15:57:31.234Z,30.16
2022-10-17T15:59:59.149Z,31.64
2022-10-17T16:02:26.323Z,32.22
2022-10-17T16:04:52.950Z,33.18
2022-10-17T16:07:20.524Z,34.02
2022-10-17T16:09:47.064Z,35.98
2022-10-17T16:14:53.292Z,38.11
2022-10-17T16:17:19.686Z,39.34
2022-10-17T16:19:46.111Z,40.59
2022-10-17T16:22:20.957Z,41.80
2022-10-17T16:24:47.411Z,42.73
2022-10-17T16:27:13.862Z,44.14
2022-10-17T16:29:40.268Z,45.20
2022-10-17T16:32:06.793Z,47.20
2022-10-17T16:34:33.217Z,49.04
2022-10-17T16:36:59.560Z,49.93
2022-10-17T16:41:58.600Z,51.77
2022-10-17T16:44:25.414Z,52.85
2022-10-17T16:46:51.769Z,53.87
2022-10-17T16:49:18.258Z,54.48
2022-10-17T16:51:44.701Z,55.57
2022-10-17T16:54:11.183Z,56.57
2022-10-17T16:56:37.666Z,57.23
2022-10-17T16:59:04.158Z,58.27
2022-10-17T17:01:30.520Z,58.96
2022-10-17T17:03:57.071Z,59.56
2022-10-17T17:06:26.665Z,60.37
2022-10-17T17:08:53.953Z,60.91
2022-10-17T17:11:24.549Z,61.52
2022-10-17T17:13:51.237Z,62.09
2022-10-17T17:16:23.868Z,63.18
2022-10-17T17:18:55.560Z,63.83
2022-10-17T17:21:22.788Z,63.94
2022-10-17T17:23:49.828Z,64.43
2022-10-17T17:26:19.057Z,64.71
2022-10-17T17:28:46.140Z,65.27
2022-10-17T17:31:15.531Z,65.53
2022-10-17T17:33:42.578Z,65.96
2022-10-17T17:36:12.809Z,66.65
2022-10-17T17:38:41.123Z,66.77
2022-10-17T17:41:07.869Z,67.54
2022-10-17T17:43:35.450Z,68.07
2022-10-17T17:46:02.361Z,68.83
2022-10-17T17:48:28.934Z,69.08
2022-10-17T17:50:55.440Z,69.36
2022-10-17T17:53:21.809Z,69.57
2022-10-17T17:55:48.213Z,70.18
2022-10-17T17:58:14.591Z,70.51
2022-10-17T18:00:41.070Z,70.81
2022-10-17T18:03:07.849Z,71.41
2022-10-17T18:05:34.322Z,71.57
2022-10-17T18:08:00.715Z,71.71
2022-10-17T18:10:28.267Z,71.83
2022-10-17T18:12:54.660Z,72.23
2022-10-17T18:15:21.052Z,72.23
2022-10-17T18:17:47.506Z,72.68
2022-10-17T18:20:13.880Z,72.73
2022-10-17T18:22:40.275Z,72.55
2022-10-17T18:25:07.167Z,72.73
2022-10-17T18:27:33.594Z,72.68
2022-10-17T18:30:00.064Z,72.92
2022-10-17T18:32:29.628Z,72.84
2022-10-17T18:34:56.258Z,73.31
2022-10-17T18:37:22.622Z,73.54
2022-10-17T18:39:51.523Z,73.89
2022-10-17T18:42:18.473Z,74.49
2022-10-17T18:44:44.861Z,74.90
2022-10-17T18:47:11.273Z,75.40
2022-10-17T18:49:37.708Z,75.75
2022-10-17T18:52:04.219Z,76.13
2022-10-17T18:54:33.333Z,76.80
2022-10-17T18:56:59.712Z,76.93
2022-10-17T18:59:26.270Z,77.17
2022-10-17T19:01:52.698Z,77.29
2022-10-17T19:04:19.168Z,77.37
2022-10-17T19:06:45.699Z,77.41
2022-10-17T19:09:13.468Z,77.65
2022-10-17T19:11:40.589Z,77.76
2022-10-17T19:14:12.758Z,77.55
2022-10-17T19:16:43.710Z,77.78
2022-10-17T19:19:21.680Z,77.98
2022-10-17T19:21:48.645Z,78.03
2022-10-17T19:24:25.490Z,78.57
2022-10-17T19:26:54.368Z,78.92
2022-10-17T19:29:22.547Z,79.14
2022-10-17T19:31:49.120Z,79.02
2022-10-17T19:34:16.419Z,78.88
2022-10-17T19:36:43.325Z,78.77
2022-10-17T19:39:18.731Z,78.79
2022-10-17T19:41:47.687Z,78.92
2022-10-17T19:44:14.964Z,78.78
2022-10-17T19:46:44.306Z,79.04
2022-10-17T19:49:11.512Z,79.02
2022-10-17T19:51:37.971Z,79.35
2022-10-17T19:54:04.634Z,79.38
2022-10-17T19:56:32.854Z,79.35
2022-10-17T19:58:59.557Z,79.25
2022-10-17T20:01:28.699Z,79.83
2022-10-17T20:03:55.716Z,80.38
2022-10-17T20:06:22.848Z,80.68
2022-10-17T20:08:49.744Z,81.00
2022-10-17T20:11:22.005Z,81.01
2022-10-17T20:13:48.972Z,81.04
2022-10-17T20:16:21.860Z,81.25
2022-10-17T20:18:54.503Z,81.51
2022-10-17T20:21:35.056Z,81.31
2022-10-17T20:24:03.062Z,81.18
2022-10-17T20:26:39.136Z,81.25
2022-10-17T20:29:18.786Z,81.38
2022-10-17T20:31:46.558Z,81.23
2022-10-17T20:34:15.044Z,81.24
2022-10-17T20:36:41.896Z,81.50
2022-10-17T20:39:10.844Z,81.81
2022-10-17T20:41:37.234Z,81.85
2022-10-17T20:44:03.946Z,82.17
2022-10-17T20:46:44.322Z,82.23
2022-10-17T20:49:17.265Z,82.01
2022-10-17T20:51:44.270Z,81.91
2022-10-17T20:54:11.674Z,82.28
2022-10-17T20:56:38.538Z,81.83
2022-10-17T20:59:08.074Z,82.05
2022-10-17T21:01:35.812Z,82.39
2022-10-17T21:04:21.494Z,82.60
2022-10-17T21:06:51.126Z,82.38
2022-10-17T21:09:17.922Z,82.61
2022-10-17T21:11:44.359Z,82.46
2022-10-17T21:14:11.966Z,82.62
2022-10-17T21:16:39.412Z,82.63
2022-10-17T21:19:06.266Z,82.75
2022-10-17T21:21:35.791Z,82.51
2022-10-17T21:24:05.367Z,82.62
2022-10-17T21:26:33.534Z,82.41
2022-10-17T21:29:05.358Z,82.81
2022-10-17T21:31:34.021Z,82.45
2022-10-17T21:34:09.041Z,81.93
2022-10-17T21:36:35.739Z,82.07
2022-10-17T21:39:02.537Z,82.43
2022-10-17T21:41:29.744Z,82.52
2022-10-17T21:43:58.756Z,82.72
2022-10-17T21:46:26.084Z,82.38
2022-10-17T21:48:52.843Z,82.77
2022-10-17T21:51:21.965Z,82.98
2022-10-17T21:53:49.113Z,82.87
2022-10-17T21:56:18.588Z,82.67
2022-10-17T21:58:45.795Z,82.43
2022-10-17T22:01:18.222Z,82.34
2022-10-17T22:03:47.526Z,82.48
2022-10-17T22:09:04.900Z,82.59
2022-10-17T22:11:34.888Z,82.46
2022-10-17T22:14:07.289Z,82.49
2022-10-17T22:16:34.982Z,82.25
2022-10-17T22:19:06.296Z,82.73
2022-10-17T22:21:34.617Z,82.40
2022-10-17T22:24:04.023Z,82.07
2022-10-17T22:26:31.694Z,82.69
2022-10-17T22:28:58.351Z,82.00
2022-10-17T22:31:25.129Z,82.19
2022-10-17T22:33:51.719Z,82.20
2022-10-17T22:36:18.215Z,82.46
2022-10-17T22:38:44.863Z,82.59
2022-10-17T22:41:11.226Z,82.85
2022-10-17T22:43:37.613Z,83.05
2022-10-17T22:46:06.272Z,83.21
2022-10-17T22:48:33.268Z,82.55
2022-10-17T22:51:00.514Z,82.71
2022-10-17T22:53:27.181Z,83.32
2022-10-17T22:55:56.073Z,83.73
2022-10-17T22:58:23.404Z,83.22
2022-10-17T23:00:51.585Z,83.24
2022-10-17T23:03:19.549Z,83.24
2022-10-17T23:05:46.052Z,82.75
2022-10-17T23:08:13.614Z,82.79
2022-10-17T23:10:40.528Z,82.84
2022-10-17T23:13:07.126Z,83.19
2022-10-17T23:15:34.163Z,82.35
2022-10-17T23:18:01.706Z,82.47
2022-10-17T23:20:29.733Z,82.36
2022-10-17T23:22:56.921Z,82.02
2022-10-17T23:25:23.550Z,81.97
2022-10-17T23:27:49.949Z,82.52
2022-10-17T23:30:16.861Z,81.99
2022-10-17T23:32:43.433Z,81.93
2022-10-17T23:35:10.280Z,82.41
2022-10-17T23:37:37.268Z,82.20
2022-10-17T23:40:04.842Z,82.13
2022-10-17T23:42:31.706Z,82.29
2022-10-17T23:44:58.058Z,81.60
2022-10-17T23:47:24.569Z,81.88
2022-10-17T23:49:51.042Z,81.99
2022-10-17T23:52:17.412Z,82.38
2022-10-17T23:54:44.018Z,82.26
2022-10-17T23:57:10.397Z,82.52
2022-10-17T23:59:36.805Z,82.31
